Time;durP1;ratioP1;P1;durP2;ratioP2;P2;SDS_P1;SDS_P2;PMS_P1;PMS_P2;Temp;Humidity;BMP_temperature;BMP_pressure;BME280_temperature;BME280_humidity;BME280_pressure;Samples;Min_cycle;Max_cycle;Signal;HPM_P1;HPM_P2
2022/09/04 00:02:50;;;;;;;3.45;1.60;;;;;;;17.16;91.16;100333.44;4912311;29;20064;-69
2022/09/04 00:05:22;;;;;;;2.58;1.92;;;;;;;17.19;91.31;100327.88;4909853;29;20119;-69
2022/09/04 00:08:13;;;;;;;2.58;1.60;;;;;;;17.24;90.80;100332.88;4910878;29;20107;-69
2022/09/04 00:11:19;;;;;;;2.05;1.60;;;;;;;17.23;90.50;100333.84;4913179;29;20079;-69
2022/09/04 00:13:55;;;;;;;2.55;2.03;;;;;;;17.21;90.24;100335.78;4912335;29;20052;-70
2022/09/04 00:16:32;;;;;;;3.00;2.08;;;;;;;17.17;90.34;100336.00;4910242;29;20092;-69
2022/09/04 00:19:12;;;;;;;3.40;2.05;;;;;;;17.20;90.11;100340.28;4905730;29;20155;-69
2022/09/04 00:21:57;;;;;;;2.30;1.67;;;;;;;17.16;89.92;100342.34;4912797;29;20067;-72
2022/09/04 00:24:31;;;;;;;2.38;1.60;;;;;;;17.00;89.62;100328.41;4910932;29;20084;-69
2022/09/04 00:27:12;;;;;;;2.50;2.00;;;;;;;17.03;89.96;100338.88;4900930;29;20044;-68
2022/09/04 00:29:47;;;;;;;3.35;1.90;;;;;;;16.99;90.19;100348.13;4912355;29;20103;-70
2022/09/04 00:32:40;;;;;;;3.88;1.98;;;;;;;16.91;90.77;100345.13;4909185;29;20052;-72
2022/09/04 00:35:19;;;;;;;5.22;1.83;;;;;;;16.90;91.32;100348.78;4911447;29;20056;-70
2022/09/04 00:37:57;;;;;;;2.95;2.35;;;;;;;16.84;91.43;100352.75;4910137;29;20047;-70
2022/09/04 00:40:31;;;;;;;4.88;2.33;;;;;;;16.72;91.72;100334.94;4908612;29;20127;-70
2022/09/04 00:43:25;;;;;;;2.47;1.95;;;;;;;16.81;92.14;100357.50;4909010;29;20067;-70
2022/09/04 00:46:36;;;;;;;2.92;1.90;;;;;;;16.71;92.25;100353.75;4909537;29;20086;-71
2022/09/04 00:49:02;;;;;;;;;;;;;;;16.80;92.37;100370.00;4906519;29;20510;-70
2022/09/04 00:51:42;;;;;;;4.32;2.00;;;;;;;16.79;92.95;100373.66;4914305;29;19966;-70
2022/09/04 00:54:17;;;;;;;3.03;2.20;;;;;;;16.80;93.03;100370.00;4909964;29;20143;-70
2022/09/04 00:57:12;;;;;;;3.67;2.20;;;;;;;16.80;93.11;100369.16;4912102;29;20067;-70
2022/09/04 01:00:19;;;;;;;3.63;2.30;;;;;;;17.01;92.75;100372.91;4911780;29;20063;-69
2022/09/04 01:03:33;;;;;;;3.70;2.63;;;;;;;17.10;92.33;100374.91;4909583;29;20052;-68
2022/09/04 01:06:06;;;;;;;2.75;2.10;;;;;;;17.17;91.69;100383.31;4908438;29;20052;-70
2022/09/04 01:08:48;;;;;;;3.78;2.13;;;;;;;17.24;91.21;100397.13;4907490;29;20581;-70
2022/09/04 01:11:55;;;;;;;3.55;1.92;;;;;;;17.26;90.80;100382.66;4914756;29;20044;-70
2022/09/04 01:14:40;;;;;;;4.57;2.30;;;;;;;17.32;90.48;100381.31;4909259;29;20048;-68
2022/09/04 01:17:09;;;;;;;3.50;2.20;;;;;;;17.23;89.54;100376.69;4914871;29;20100;-71
2022/09/04 01:20:05;;;;;;;3.15;2.00;;;;;;;17.22;89.43;100385.66;4913649;29;20075;-68
2022/09/04 01:22:43;;;;;;;4.18;2.40;;;;;;;17.21;89.57;100395.53;4901858;29;20071;-69
2022/09/04 01:25:31;;;;;;;2.60;2.13;;;;;;;17.19;90.00;100392.94;4907870;29;20044;-70
2022/09/04 01:28:04;;;;;;;2.92;2.42;;;;;;;17.16;89.74;100398.53;4905623;29;20048;-70
2022/09/04 01:30:42;;;;;;;4.55;2.25;;;;;;;17.13;89.77;100404.13;4906062;29;20080;-70
2022/09/04 01:33:29;;;;;;;3.97;2.33;;;;;;;17.15;89.92;100396.84;4907952;29;20044;-69
2022/09/04 01:36:16;;;;;;;3.08;2.58;;;;;;;17.17;89.51;100397.56;4906640;29;20100;-68
2022/09/04 01:38:52;;;;;;;5.05;2.90;;;;;;;17.13;89.13;100403.28;4904567;29;20075;-70
2022/09/04 01:41:26;;;;;;;4.45;3.25;;;;;;;17.08;89.60;100395.56;4912212;29;20079;-70
2022/09/04 01:43:53;;;;;;;4.82;2.53;;;;;;;17.05;89.69;100406.50;4909008;29;20056;-69
2022/09/04 01:46:37;;;;;;;4.95;3.05;;;;;;;17.07;90.01;100409.91;4914626;29;20052;-69
2022/09/04 01:49:18;;;;;;;3.58;3.00;;;;;;;17.09;89.45;100412.50;4906132;29;20521;-70
2022/09/04 01:51:50;;;;;;;3.75;2.80;;;;;;;17.13;90.09;100414.84;4910599;29;20080;-69
2022/09/04 01:54:47;;;;;;;4.88;2.90;;;;;;;17.24;89.64;100410.50;4909943;29;20080;-70
2022/09/04 01:57:57;;;;;;;4.47;2.80;;;;;;;17.29;88.85;100408.34;4912276;29;20091;-68
2022/09/04 02:00:31;;;;;;;3.75;2.83;;;;;;;17.20;88.50;100393.81;4913461;29;20052;-71
2022/09/04 02:03:21;;;;;;;3.70;2.63;;;;;;;17.24;88.58;100403.31;4913582;29;20044;-69
2022/09/04 02:06:21;;;;;;;5.22;2.92;;;;;;;17.30;88.94;100410.91;4910441;29;20048;-70
2022/09/04 02:09:32;;;;;;;3.65;2.47;;;;;;;17.32;88.19;100413.44;4904284;29;20060;-69
2022/09/04 02:12:41;;;;;;;3.67;2.80;;;;;;;17.29;87.97;100408.34;4908843;29;20052;-72
2022/09/04 02:15:36;;;;;;;7.47;3.45;;;;;;;17.30;88.13;100416.25;4907668;29;20079;-69
2022/09/04 02:18:21;;;;;;;6.03;2.72;;;;;;;17.27;88.12;100416.47;4909178;29;20056;-70
2022/09/04 02:21:04;;;;;;;4.30;3.03;;;;;;;17.15;88.17;100401.34;4907509;29;20144;-70
2022/09/04 02:23:37;;;;;;;4.80;3.22;;;;;;;17.27;88.28;100426.34;4903791;29;20068;-69
2022/09/04 02:26:19;;;;;;;5.13;3.20;;;;;;;17.25;87.89;100429.13;4904584;29;20080;-68
2022/09/04 02:28:46;;;;;;;4.03;2.85;;;;;;;17.25;88.05;100431.78;4914431;29;20132;-69
2022/09/04 02:31:29;;;;;;;6.63;3.20;;;;;;;17.22;88.32;100428.47;4910329;29;20056;-70
2022/09/04 02:34:11;;;;;;;3.50;2.80;;;;;;;17.17;89.05;100424.31;4906731;29;20099;-67
2022/09/04 02:36:57;;;;;;;4.75;3.03;;;;;;;17.12;89.08;100425.66;4910021;29;20087;-69
2022/09/04 02:39:23;;;;;;;4.05;3.05;;;;;;;17.10;89.36;100427.56;4908593;29;20084;-69
2022/09/04 02:41:53;;;;;;;3.60;2.35;;;;;;;17.07;89.48;100425.13;4913310;29;20052;-67
2022/09/04 02:44:32;;;;;;;4.03;2.35;;;;;;;17.08;89.00;100426.84;4912569;29;20083;-69
2022/09/04 02:47:27;;;;;;;2.85;2.53;;;;;;;17.07;88.80;100435.81;4907017;29;20143;-69
2022/09/04 02:50:06;;;;;;;4.75;2.72;;;;;;;17.06;88.85;100423.41;4909085;29;20066;-70
2022/09/04 02:53:02;;;;;;;5.43;2.85;;;;;;;17.02;88.63;100428.13;4912224;29;20112;-71
2022/09/04 02:55:56;;;;;;;3.47;2.60;;;;;;;17.02;89.11;100428.13;4913177;29;20461;-71
2022/09/04 02:58:42;;;;;;;3.97;2.63;;;;;;;17.03;89.14;100431.66;4912182;29;20056;-69
2022/09/04 03:01:30;;;;;;;3.95;2.28;;;;;;;17.04;89.19;100430.69;4911111;29;20102;-69
2022/09/04 03:04:23;;;;;;;3.13;2.55;;;;;;;16.93;89.05;100409.22;4915095;29;20550;-69
2022/09/04 03:06:56;;;;;;;3.47;2.50;;;;;;;17.12;88.81;100431.84;4905637;29;20048;-67
2022/09/04 03:09:27;;;;;;;3.60;2.42;;;;;;;17.19;88.68;100440.25;4907246;29;20060;-68
2022/09/04 03:12:02;;;;;;;3.20;2.28;;;;;;;17.22;88.19;100442.72;4909156;29;20087;-71
2022/09/04 03:14:39;;;;;;;5.35;3.03;;;;;;;17.22;88.17;100439.19;4911380;29;20413;-71
2022/09/04 03:17:19;;;;;;;5.30;3.00;;;;;;;17.23;88.04;100430.19;4911680;29;20059;-69
2022/09/04 03:19:59;;;;;;;5.03;3.30;;;;;;;17.15;88.28;100420.94;4906484;29;20090;-69
2022/09/04 03:22:30;;;;;;;4.82;3.30;;;;;;;17.31;88.38;100435.84;4907841;29;20118;-70
2022/09/04 03:25:06;;;;;;;6.82;4.07;;;;;;;17.19;88.64;100418.84;4912618;29;20111;-70
2022/09/04 03:27:33;;;;;;;7.70;4.90;;;;;;;17.24;89.07;100424.72;4907192;29;20104;-70
2022/09/04 03:30:11;;;;;;;9.73;5.35;;;;;;;17.34;89.31;100428.41;4913616;29;20127;-70
2022/09/04 03:33:07;;;;;;;13.18;7.00;;;;;;;17.53;90.83;100443.97;4911883;29;20063;-68
2022/09/04 03:35:46;;;;;;;10.18;5.78;;;;;;;17.58;90.48;100449.84;4913908;29;20479;-69
2022/09/04 03:39:01;;;;;;;17.27;8.23;;;;;;;17.63;91.03;100453.00;4913026;29;20075;-69
2022/09/04 03:42:14;;;;;;;46.83;18.30;;;;;;;17.74;96.42;100442.41;4852555;29;20113;-69
2022/09/04 03:45:01;;;;;;;49.47;19.35;;;;;;;17.75;98.08;100445.94;4845052;29;20109;-71
2022/09/04 03:47:36;;;;;;;48.80;20.42;;;;;;;17.73;99.26;100442.50;4911066;29;20068;-69
2022/09/04 03:50:17;;;;;;;48.47;19.63;;;;;;;17.67;100.00;100445.63;4909636;29;20071;-69
2022/09/04 03:53:09;;;;;;;48.72;20.35;;;;;;;17.65;100.00;100437.72;4912399;29;20048;-68
2022/09/04 03:56:06;;;;;;;47.58;20.48;;;;;;;17.64;100.00;100445.88;4915856;29;20483;-69
2022/09/04 03:58:44;;;;;;;45.70;18.63;;;;;;;17.50;100.00;100428.97;4919740;29;20082;-69
2022/09/04 04:01:39;;;;;;;47.55;19.10;;;;;;;17.67;100.00;100449.16;4910150;29;20135;-68
2022/09/04 04:04:05;;;;;;;34.78;14.82;;;;;;;17.57;100.00;100432.06;4910261;29;20115;-68
2022/09/04 04:07:00;;;;;;;37.45;16.35;;;;;;;17.74;100.00;100453.09;4912095;29;20107;-68
2022/09/04 04:09:41;;;;;;;34.28;14.25;;;;;;;17.79;100.00;100452.75;4908525;29;20056;-69
2022/09/04 04:12:11;;;;;;;10.60;6.22;;;;;;;17.77;98.97;100457.38;4916018;29;20091;-69
2022/09/04 04:14:44;;;;;;;6.97;5.20;;;;;;;17.74;96.83;100461.16;4913635;29;20055;-69
2022/09/04 04:17:49;;;;;;;4.22;3.70;;;;;;;17.72;94.48;100460.41;4907021;29;20052;-67
2022/09/04 04:20:35;;;;;;;3.92;3.30;;;;;;;17.71;92.87;100460.50;4910758;29;20695;-70
2022/09/04 04:23:23;;;;;;;3.50;3.20;;;;;;;17.66;91.61;100458.16;4911880;29;20071;-70
2022/09/04 04:26:09;;;;;;;4.03;3.38;;;;;;;17.63;89.97;100461.03;4914022;29;20142;-70
2022/09/04 04:28:58;;;;;;;3.40;3.03;;;;;;;17.48;89.63;100446.13;4913201;29;20103;-71
2022/09/04 04:31:40;;;;;;;4.50;3.45;;;;;;;17.50;89.00;100447.72;4909969;29;20063;-70
2022/09/04 04:34:32;;;;;;;3.60;3.30;;;;;;;17.63;88.78;100471.75;4913396;29;20100;-71
2022/09/04 04:37:09;;;;;;;3.50;3.20;;;;;;;17.69;87.68;100475.84;4908235;29;20297;-69
2022/09/04 04:39:48;;;;;;;5.70;3.53;;;;;;;17.59;87.03;100450.69;4911829;29;20064;-70
2022/09/04 04:42:21;;;;;;;3.83;3.42;;;;;;;17.77;86.56;100489.53;4909370;29;20048;-69
2022/09/04 04:48:08;;;;;;;6.07;4.25;;;;;;;17.76;85.90;100499.38;4907399;29;20107;-68
2022/09/04 04:50:42;;;;;;;3.97;3.58;;;;;;;17.70;85.78;100497.16;4909848;29;20117;-70
2022/09/04 04:53:47;;;;;;;4.22;3.83;;;;;;;17.69;85.89;100505.31;4913047;29;20059;-70
2022/09/04 04:56:25;;;;;;;4.82;3.92;;;;;;;17.65;86.00;100506.50;4909083;29;20198;-70
2022/09/04 04:59:19;;;;;;;6.95;4.20;;;;;;;17.69;85.89;100514.19;4911394;29;20530;-70
2022/09/04 05:02:17;;;;;;;5.13;4.35;;;;;;;17.68;85.66;100519.66;4911842;29;20462;-69
2022/09/04 05:05:06;;;;;;;4.85;3.92;;;;;;;17.57;85.25;100503.50;4910523;29;20266;-70
2022/09/04 05:08:02;;;;;;;8.25;4.70;;;;;;;17.60;85.56;100505.97;4910217;29;20094;-69
2022/09/04 05:10:39;;;;;;;5.97;4.55;;;;;;;17.70;85.16;100525.75;4910201;29;20135;-69
2022/09/04 05:13:25;;;;;;;6.35;4.68;;;;;;;17.66;85.21;100530.47;4913538;29;20080;-72
2022/09/04 05:16:10;;;;;;;5.78;5.18;;;;;;;17.62;85.42;100530.81;4910587;29;20107;-71
2022/09/04 05:19:09;;;;;;;5.68;5.05;;;;;;;17.60;85.68;100532.75;4910112;29;20705;-69
2022/09/04 05:21:46;;;;;;;4.88;4.35;;;;;;;17.64;86.16;100540.44;4909029;29;20071;-70
2022/09/04 05:24:31;;;;;;;6.47;4.80;;;;;;;17.71;86.08;100546.22;4908034;29;20514;-70
2022/09/04 05:27:08;;;;;;;6.45;5.57;;;;;;;17.80;85.73;100553.56;4907479;29;20071;-71
2022/09/04 05:29:54;;;;;;;7.95;5.03;;;;;;;17.84;85.37;100549.69;4910518;29;20076;-72
2022/09/04 05:32:36;;;;;;;7.80;5.30;;;;;;;17.91;85.09;100560.81;4908733;29;20048;-70
2022/09/04 05:35:40;;;;;;;6.80;5.43;;;;;;;17.94;85.06;100564.13;4907678;29;20124;-69
2022/09/04 05:38:24;;;;;;;6.93;5.60;;;;;;;17.85;84.70;100548.72;4908973;29;20055;-70
2022/09/04 05:40:57;;;;;;;6.47;5.75;;;;;;;17.97;84.63;100574.59;4907720;29;20139;-69
2022/09/04 05:43:51;;;;;;;7.57;5.70;;;;;;;18.00;84.45;100571.69;4909754;29;20056;-70
2022/09/04 05:46:39;;;;;;;9.43;5.80;;;;;;;17.99;84.85;100575.34;4906620;29;20082;-71
2022/09/04 05:49:17;;;;;;;7.15;6.18;;;;;;;18.05;84.99;100582.94;4906366;29;20586;-69
2022/09/04 05:51:49;;;;;;;9.57;6.68;;;;;;;17.99;84.98;100555.72;4910790;29;20109;-70
2022/09/04 05:54:40;;;;;;;8.93;6.90;;;;;;;18.20;84.70;100579.09;4904512;29;20143;-70
2022/09/04 05:57:15;;;;;;;12.63;8.52;;;;;;;18.28;85.09;100591.91;4906692;29;20068;-69
2022/09/04 06:00:05;;;;;;;11.48;8.20;;;;;;;18.29;84.63;100576.66;4908131;29;20048;-70
2022/09/04 06:03:09;;;;;;;15.88;9.40;;;;;;;18.35;85.62;100587.78;4909645;29;20840;-70
2022/09/04 06:05:57;;;;;;;21.55;10.75;;;;;;;18.26;86.43;100566.19;4902713;29;20116;-70
2022/09/04 06:08:37;;;;;;;18.35;10.63;;;;;;;18.29;86.18;100572.16;4909475;29;20123;-69
2022/09/04 06:11:19;;;;;;;16.80;9.85;;;;;;;18.35;86.13;100571.69;4910217;29;20159;-69
2022/09/04 06:14:14;;;;;;;19.13;10.27;;;;;;;18.51;85.79;100599.06;4913065;29;20077;-67
2022/09/04 06:16:56;;;;;;;17.55;10.45;;;;;;;18.50;85.81;100600.03;4909820;29;20491;-70
2022/09/04 06:19:52;;;;;;;19.13;10.80;;;;;;;18.31;86.22;100591.66;4905780;29;20494;-70
2022/09/04 06:22:43;;;;;;;15.25;9.43;;;;;;;18.28;87.23;100607.97;4909967;29;20898;-69
2022/09/04 06:25:47;;;;;;;24.48;11.93;;;;;;;18.33;88.37;100621.03;4902821;29;20171;-69
2022/09/04 06:28:36;;;;;;;26.23;13.88;;;;;;;18.38;89.31;100617.06;4906011;29;20498;-69
2022/09/04 06:31:19;;;;;;;38.15;15.57;;;;;;;18.35;90.85;100616.44;4906845;29;20056;-69
2022/09/04 06:33:48;;;;;;;34.80;14.95;;;;;;;18.31;91.83;100626.50;4906066;29;20138;-71
2022/09/04 06:36:50;;;;;;;46.22;18.33;;;;;;;18.20;93.46;100626.47;4907465;29;20541;-68
2022/09/04 06:39:42;;;;;;;56.63;19.83;;;;;;;17.97;95.83;100620.13;4866654;29;20100;-71
2022/09/04 06:42:30;;;;;;;54.58;19.40;;;;;;;17.83;97.89;100623.84;4905221;29;20135;-69
2022/09/04 06:44:59;;;;;;;53.45;18.65;;;;;;;17.87;99.28;100633.38;4907710;29;20494;-70
2022/09/04 06:47:48;;;;;;;57.40;19.77;;;;;;;17.87;99.60;100641.41;4908329;29;20059;-71
2022/09/04 06:50:21;;;;;;;65.50;20.13;;;;;;;17.82;99.68;100637.34;4907449;29;20140;-70
2022/09/04 06:53:17;;;;;;;54.63;19.23;;;;;;;17.82;100.00;100648.91;4909037;29;20518;-68
2022/09/04 06:55:46;;;;;;;57.88;19.13;;;;;;;17.97;100.00;100646.06;4907034;29;20084;-71
2022/09/04 06:58:25;;;;;;;56.15;19.13;;;;;;;18.06;99.65;100634.69;4903785;29;20053;-69
2022/09/04 07:01:01;;;;;;;51.95;18.73;;;;;;;18.09;98.71;100618.41;4908436;29;20082;-69
2022/09/04 07:03:52;;;;;;;50.22;18.17;;;;;;;18.36;97.38;100642.25;4887746;29;20463;-69
2022/09/04 07:06:20;;;;;;;48.17;16.40;;;;;;;18.35;95.69;100630.69;4902335;29;20510;-72
2022/09/04 07:08:58;;;;;;;48.08;18.35;;;;;;;18.55;95.22;100654.16;4911321;29;20100;-70
2022/09/04 07:11:58;;;;;;;43.95;16.50;;;;;;;18.53;94.40;100629.28;4910305;29;20060;-71
2022/09/04 07:14:52;;;;;;;42.58;16.95;;;;;;;18.78;93.74;100656.94;4906899;29;20086;-70
2022/09/04 07:17:28;;;;;;;47.33;17.10;;;;;;;18.83;92.58;100660.13;4911615;29;20112;-71
2022/09/04 07:20:18;;;;;;;44.55;16.65;;;;;;;18.92;92.06;100659.41;4903248;29;20091;-70
2022/09/04 07:22:56;;;;;;;47.80;18.67;;;;;;;19.01;91.24;100666.75;4907505;29;20056;-69
2022/09/04 07:25:29;;;;;;;51.40;18.58;;;;;;;19.06;90.12;100669.94;4904410;29;20553;-70
2022/09/04 07:28:32;;;;;;;53.25;20.02;;;;;;;19.07;90.22;100682.38;4905717;29;20596;-71
2022/09/04 07:31:07;;;;;;;54.47;20.13;;;;;;;19.06;89.61;100682.50;4889086;29;20052;-69
2022/09/04 07:33:44;;;;;;;52.90;21.52;;;;;;;19.07;90.07;100682.38;4912050;29;20076;-70
2022/09/04 07:36:43;;;;;;;62.75;22.95;;;;;;;18.95;89.24;100686.00;4906850;29;20044;-73
2022/09/04 07:39:21;;;;;;;59.78;22.05;;;;;;;18.71;91.07;100666.44;4890912;29;20158;-70
2022/09/04 07:42:22;;;;;;;52.75;19.33;;;;;;;18.93;92.49;100687.97;4903717;29;20056;-70
2022/09/04 07:44:59;;;;;;;46.25;17.65;;;;;;;19.04;91.43;100693.38;4911710;29;20056;-70
2022/09/04 07:47:34;;;;;;;44.47;18.05;;;;;;;19.15;89.91;100695.22;4908220;29;20574;-70
2022/09/04 07:50:16;;;;;;;42.33;17.73;;;;;;;19.23;89.76;100693.63;4905510;29;20051;-70
2022/09/04 07:53:01;;;;;;;45.78;17.48;;;;;;;19.26;89.08;100692.53;4911780;29;20513;-71
2022/09/04 07:55:45;;;;;;;41.72;17.58;;;;;;;19.18;88.18;100671.69;4907421;29;20060;-71
2022/09/04 07:58:40;;;;;;;42.92;18.05;;;;;;;19.39;88.49;100693.28;4909342;29;20048;-70
2022/09/04 08:01:18;;;;;;;33.67;15.55;;;;;;;19.28;87.51;100672.66;4908191;29;20075;-71
2022/09/04 08:03:50;;;;;;;32.08;15.23;;;;;;;19.39;87.01;100700.47;4905219;29;20392;-69
2022/09/04 08:06:23;;;;;;;28.40;13.48;;;;;;;19.35;87.08;100707.09;4904748;29;20053;-72
2022/09/04 08:09:14;;;;;;;30.05;15.32;;;;;;;19.42;87.53;100710.97;4890412;29;20075;-71
2022/09/04 08:11:51;;;;;;;34.03;18.02;;;;;;;19.36;87.04;100716.84;4909942;29;20407;-69
2022/09/04 08:14:53;;;;;;;29.55;16.48;;;;;;;19.46;87.78;100718.69;4911419;29;20116;-71
2022/09/04 08:17:26;;;;;;;29.38;15.73;;;;;;;19.72;86.16;100726.53;4908369;29;20108;-71
2022/09/04 08:19:55;;;;;;;28.13;16.40;;;;;;;19.84;82.80;100728.22;4909149;29;20099;-72
2022/09/04 08:23:00;;;;;;;32.33;17.50;;;;;;;19.80;85.02;100735.72;4911477;29;20063;-71
2022/09/04 08:25:41;;;;;;;30.25;18.05;;;;;;;19.82;84.37;100714.94;4879987;29;20107;-72
2022/09/04 08:28:32;;;;;;;28.52;17.55;;;;;;;20.09;83.10;100732.50;4910725;29;20516;-70
2022/09/04 08:31:24;;;;;;;28.45;17.20;;;;;;;20.27;81.70;100734.53;4909464;29;20044;-71
2022/09/04 08:34:28;;;;;;;27.52;17.40;;;;;;;20.45;80.77;100737.59;4906296;29;20417;-69
2022/09/04 08:37:06;;;;;;;42.28;26.10;;;;;;;20.61;79.31;100737.19;4908206;29;20578;-69
2022/09/04 08:39:41;;;;;;;37.40;23.90;;;;;;;20.69;78.76;100739.22;4910123;29;20084;-71
2022/09/04 08:42:43;;;;;;;33.60;21.23;;;;;;;20.60;78.55;100730.94;4903583;29;20056;-71
2022/09/04 08:45:28;;;;;;;26.13;17.38;;;;;;;20.75;78.29;100750.31;4910363;29;20051;-72
2022/09/04 08:48:24;;;;;;;29.80;18.15;;;;;;;20.74;76.81;100727.09;4905945;29;20074;-73
2022/09/04 08:51:06;;;;;;;26.23;17.92;;;;;;;20.93;76.99;100756.00;4906482;29;20052;-72
2022/09/04 08:53:46;;;;;;;24.60;18.38;;;;;;;20.94;76.23;100750.47;4905851;29;20420;-68
2022/09/04 08:56:43;;;;;;;27.02;19.05;;;;;;;21.07;76.70;100749.44;4904940;29;20119;-72
2022/09/04 08:59:32;;;;;;;24.30;18.38;;;;;;;20.76;77.04;100746.66;4914799;29;20112;-73
2022/09/04 09:02:25;;;;;;;23.48;18.33;;;;;;;20.38;79.15;100747.13;4911645;29;20090;-73
2022/09/04 09:05:00;;;;;;;26.20;18.58;;;;;;;20.07;81.31;100731.75;4907642;29;20067;-69
2022/09/04 09:07:47;;;;;;;23.15;16.58;;;;;;;20.43;79.53;100753.00;4912142;29;20048;-72
2022/09/04 09:11:02;;;;;;;21.63;16.08;;;;;;;20.76;77.81;100748.50;4911529;29;20099;-70
2022/09/04 09:13:50;;;;;;;20.92;16.17;;;;;;;20.74;76.48;100748.63;4914613;29;20146;-72
2022/09/04 09:16:41;;;;;;;20.85;15.98;;;;;;;20.79;78.21;100756.28;4908637;29;20048;-70
2022/09/04 09:19:21;;;;;;;19.90;14.63;;;;;;;20.95;76.92;100738.72;4905133;29;20127;-70
2022/09/04 09:22:03;;;;;;;19.42;14.60;;;;;;;21.21;75.88;100749.16;4899692;29;20056;-70
2022/09/04 09:24:50;;;;;;;18.65;14.48;;;;;;;21.16;75.89;100760.28;4899099;29;20090;-70
2022/09/04 09:27:46;;;;;;;21.33;15.38;;;;;;;21.00;76.60;100752.66;4896501;29;20060;-70
2022/09/04 09:30:19;;;;;;;19.48;14.27;;;;;;;20.91;77.08;100745.38;4899590;29;20083;-70
2022/09/04 09:33:22;;;;;;;18.92;14.82;;;;;;;21.06;78.34;100759.34;4904820;29;20136;-69
2022/09/04 09:36:07;;;;;;;17.55;13.50;;;;;;;21.34;75.59;100747.97;4901531;29;20064;-71
2022/09/04 09:38:36;;;;;;;17.75;15.07;;;;;;;21.50;72.89;100754.72;4901571;29;21718;-69
2022/09/04 09:41:32;;;;;;;21.55;16.65;;;;;;;20.81;76.04;100728.25;4901089;29;20107;-70
2022/09/04 09:44:21;;;;;;;21.15;15.90;;;;;;;21.01;77.53;100743.59;4897727;29;20052;-71
2022/09/04 09:47:17;;;;;;;19.83;15.35;;;;;;;21.27;74.71;100741.38;4900013;29;20415;-70
2022/09/04 09:49:46;;;;;;;16.88;13.93;;;;;;;21.44;75.36;100736.38;4902228;29;20094;-69
2022/09/04 09:52:33;;;;;;;18.67;15.43;;;;;;;21.51;74.46;100741.09;4899615;29;20048;-70
2022/09/04 09:55:44;;;;;;;18.80;14.93;;;;;;;21.55;73.81;100734.47;4899515;29;20839;-70
2022/09/04 09:58:31;;;;;;;25.33;14.80;;;;;;;21.64;74.05;100722.88;4902708;29;20319;-70
2022/09/04 10:00:58;;;;;;;19.42;14.75;;;;;;;21.93;72.28;100739.16;4906595;29;20719;-69
2022/09/04 10:03:38;;;;;;;17.38;14.80;;;;;;;21.97;71.80;100740.59;4902753;29;20140;-68
2022/09/04 10:06:22;;;;;;;19.15;16.23;;;;;;;21.81;72.04;100737.56;4900946;29;20072;-71
2022/09/04 10:09:01;;;;;;;16.52;13.60;;;;;;;21.81;73.87;100742.94;4901958;29;20076;-68
2022/09/04 10:11:52;;;;;;;16.00;13.32;;;;;;;22.05;71.77;100739.94;4904105;29;20715;-69
2022/09/04 10:14:37;;;;;;;15.65;13.55;;;;;;;22.23;70.17;100737.44;4904294;29;20063;-70
2022/09/04 10:17:32;;;;;;;15.10;13.38;;;;;;;22.37;70.11;100737.88;4887036;29;21046;-69
2022/09/04 10:20:20;;;;;;;16.15;13.38;;;;;;;22.50;70.20;100745.75;4899127;29;20079;-72
2022/09/04 10:23:02;;;;;;;15.90;14.02;;;;;;;22.40;70.20;100731.38;4904421;29;20064;-69
2022/09/04 10:25:54;;;;;;;14.30;10.75;;;;;;;22.54;70.02;100730.09;4902756;29;20071;-69
2022/09/04 10:28:39;;;;;;;14.25;12.32;;;;;;;22.25;69.85;100711.16;4900614;29;20064;-70
2022/09/04 10:31:09;;;;;;;12.43;10.77;;;;;;;22.33;70.07;100712.19;4903619;29;20060;-70
2022/09/04 10:34:12;;;;;;;11.77;10.45;;;;;;;22.35;70.32;100714.75;4903199;29;20068;-70
2022/09/04 10:36:58;;;;;;;13.02;10.45;;;;;;;22.67;69.56;100731.53;4903517;29;20056;-69
2022/09/04 10:43:16;;;;;;;12.88;11.27;;;;;;;23.05;67.18;100727.16;4883903;29;20076;-69
2022/09/04 10:46:09;;;;;;;14.25;12.73;;;;;;;22.80;68.68;100733.16;4900041;29;20063;-69
2022/09/04 10:49:17;;;;;;;14.15;11.88;;;;;;;22.32;70.51;100725.81;4903063;29;20068;-69
2022/09/04 10:52:15;;;;;;;11.90;10.70;;;;;;;22.36;71.30;100724.53;4901667;29;20051;-70
2022/09/04 10:55:04;;;;;;;10.45;9.10;;;;;;;22.70;69.03;100725.00;4886536;29;20104;-69
2022/09/04 10:58:09;;;;;;;15.88;9.18;;;;;;;23.02;67.41;100727.44;4901679;29;20147;-70
2022/09/04 11:00:51;;;;;;;10.18;9.15;;;;;;;23.01;66.15;100696.00;4897200;29;20152;-67
2022/09/04 11:03:57;;;;;;;10.50;8.95;;;;;;;23.05;66.45;100725.28;4905288;29;20052;-72
2022/09/04 11:06:51;;;;;;;11.02;9.18;;;;;;;22.98;67.72;100720.63;4900423;29;20064;-69
2022/09/04 11:09:42;;;;;;;10.93;9.75;;;;;;;23.00;67.16;100730.28;4898444;29;20052;-69
2022/09/04 11:12:14;;;;;;;11.45;9.10;;;;;;;23.01;67.17;100729.28;4906209;29;20076;-71
2022/09/04 11:15:25;;;;;;;10.82;8.57;;;;;;;22.92;66.37;100726.59;4899862;29;22353;-70
2022/09/04 11:18:04;;;;;;;;;;;;;;;22.77;66.34;100715.38;4899913;29;20055;-70
2022/09/04 11:20:55;;;;;;;9.20;8.25;;;;;;;22.79;67.91;100713.38;4898313;29;19926;-68
2022/09/04 11:23:37;;;;;;;7.63;6.57;;;;;;;23.11;66.84;100712.22;4900817;29;20141;-70
2022/09/04 11:26:12;;;;;;;7.25;6.55;;;;;;;23.27;64.13;100712.47;4905686;29;20059;-70
2022/09/04 11:29:11;;;;;;;8.07;6.55;;;;;;;23.49;64.59;100708.56;4901870;29;20075;-69
2022/09/04 11:31:58;;;;;;;8.63;6.95;;;;;;;23.83;63.77;100709.72;4888970;29;20055;-68
2022/09/04 11:35:12;;;;;;;8.95;7.13;;;;;;;24.14;61.51;100710.28;4902787;29;20052;-69
2022/09/04 11:37:45;;;;;;;6.95;6.25;;;;;;;24.09;59.73;100689.06;4901768;29;20084;-70
2022/09/04 11:40:27;;;;;;;8.70;6.15;;;;;;;23.98;61.20;100700.13;4901055;29;20119;-69
2022/09/04 11:43:29;;;;;;;5.78;5.10;;;;;;;23.96;60.34;100696.69;4898114;29;20414;-70
2022/09/04 11:46:13;;;;;;;6.70;6.00;;;;;;;23.69;61.33;100704.81;4902275;29;20071;-69
2022/09/04 11:49:08;;;;;;;5.35;4.85;;;;;;;23.71;61.20;100692.84;4903233;29;20548;-69
2022/09/04 11:52:02;;;;;;;6.07;5.05;;;;;;;23.91;60.87;100699.03;4901385;29;20119;-69
2022/09/04 11:55:03;;;;;;;8.00;4.90;;;;;;;23.76;59.83;100677.03;4885575;29;20726;-70
2022/09/04 11:57:57;;;;;;;6.10;5.40;;;;;;;23.91;60.69;100699.03;4905647;29;20116;-70
2022/09/04 12:00:26;;;;;;;7.28;5.18;;;;;;;24.16;60.48;100692.03;4903974;29;20132;-69
2022/09/04 12:03:33;;;;;;;9.25;5.80;;;;;;;24.60;57.62;100695.72;4906389;29;20423;-69
2022/09/04 12:06:27;;;;;;;6.22;4.57;;;;;;;24.74;57.56;100691.63;4904343;29;20135;-69
2022/09/04 12:09:12;;;;;;;6.47;5.07;;;;;;;25.00;56.04;100689.00;4905568;29;20575;-69
2022/09/04 12:12:15;;;;;;;3.88;3.50;;;;;;;25.33;55.17;100693.66;4903443;29;21004;-70
2022/09/04 12:15:11;;;;;;;6.65;4.20;;;;;;;25.59;53.35;100695.47;4904330;29;20129;-70
2022/09/04 12:18:14;;;;;;;4.65;3.70;;;;;;;25.74;52.58;100686.59;4903960;29;20502;-71
2022/09/04 12:21:01;;;;;;;4.55;3.70;;;;;;;25.95;52.07;100691.63;4904344;29;20076;-70
2022/09/04 12:23:46;;;;;;;3.80;3.38;;;;;;;26.12;51.52;100690.66;4900981;29;20147;-68
2022/09/04 12:26:25;;;;;;;3.80;3.05;;;;;;;25.98;49.70;100676.84;4903454;29;20521;-71
2022/09/04 12:29:18;;;;;;;3.65;2.50;;;;;;;25.40;51.72;100669.44;4903410;29;20064;-71
2022/09/04 12:32:27;;;;;;;3.63;2.55;;;;;;;25.46;51.77;100675.09;4899906;29;20056;-67
2022/09/04 12:35:29;;;;;;;6.05;2.42;;;;;;;25.77;49.55;100690.84;4900693;29;20554;-69
2022/09/04 12:38:20;;;;;;;3.78;2.60;;;;;;;25.89;49.54;100692.25;4899140;29;20570;-69
2022/09/04 12:41:00;;;;;;;2.42;1.98;;;;;;;25.90;49.32;100680.38;4904483;29;20103;-70
2022/09/04 12:43:29;;;;;;;;;;;;;;;26.11;50.47;100688.94;4897421;29;20071;-72
2022/09/04 12:46:35;;;;;;;3.25;2.95;;;;;;;26.10;50.38;100692.69;4898035;29;20385;-69
2022/09/04 12:49:24;;;;;;;4.50;3.30;;;;;;;26.01;48.87;100692.81;4860853;29;20110;-72
2022/09/04 12:52:03;;;;;;;2.97;2.40;;;;;;;25.93;49.54;100685.50;4843440;29;20629;-69
2022/09/04 12:54:50;;;;;;;3.88;3.00;;;;;;;26.12;49.21;100693.38;4865870;29;20120;-71